Time;durP1;ratioP1;P1;durP2;ratioP2;P2;SDS_P1;SDS_P2;PMS_P1;PMS_P2;Temp;Humidity;BMP_temperature;BMP_pressure;BME280_temperature;BME280_humidity;BME280_pressure;Samples;Min_cycle;Max_cycle;Signal;HPM_P1;HPM_P2
2022/07/18 00:02:13;;;;;;;1.30;1.07;;;;;;;23.71;26.67;97536.16;4820081;29;20259;-69
2022/07/18 00:04:41;;;;;;;1.83;1.20;;;;;;;23.72;26.50;97540.50;4819954;29;20654;-68
2022/07/18 00:07:10;;;;;;;1.27;1.10;;;;;;;23.76;26.26;97533.97;4820059;29;20287;-69
2022/07/18 00:09:39;;;;;;;2.40;1.10;;;;;;;23.72;26.42;97536.03;4820389;29;20225;-69
2022/07/18 00:12:08;;;;;;;8.27;1.40;;;;;;;23.78;26.64;97539.94;4820107;29;20251;-68
2022/07/18 00:14:36;;;;;;;3.80;1.47;;;;;;;23.77;26.59;97539.09;4819913;29;20208;-68
2022/07/18 00:17:04;;;;;;;1.37;0.97;;;;;;;23.67;27.13;97540.06;4819877;29;20299;-69
2022/07/18 00:19:31;;;;;;;1.43;0.90;;;;;;;23.55;26.82;97551.75;4820033;29;20259;-69
2022/07/18 00:21:59;;;;;;;3.13;1.30;;;;;;;23.41;27.37;97537.13;4819955;29;20218;-68
2022/07/18 00:24:25;;;;;;;1.50;1.10;;;;;;;23.52;27.27;97531.72;4819794;29;20677;-69
2022/07/18 00:26:53;;;;;;;1.60;1.20;;;;;;;23.57;26.95;97540.06;4819791;29;20693;-69
2022/07/18 00:29:19;;;;;;;1.60;1.00;;;;;;;23.49;27.40;97545.22;4819648;29;20212;-69
2022/07/18 00:31:46;;;;;;;3.50;1.40;;;;;;;23.49;26.84;97549.66;4819744;29;20782;-69
2022/07/18 00:34:13;;;;;;;1.87;1.00;;;;;;;23.54;26.98;97544.78;4819674;29;20623;-69
2022/07/18 00:36:40;;;;;;;2.63;1.20;;;;;;;23.55;27.26;97549.94;4819540;29;20225;-70
2022/07/18 00:39:07;;;;;;;1.30;1.20;;;;;;;23.53;27.13;97549.25;4819508;29;20200;-69
2022/07/18 00:41:34;;;;;;;1.47;1.10;;;;;;;23.60;27.02;97552.16;4819760;29;20263;-70
2022/07/18 00:44:02;;;;;;;1.73;1.13;;;;;;;23.53;27.23;97548.41;4819921;29;20208;-70
2022/07/18 00:46:29;;;;;;;1.97;1.20;;;;;;;23.46;27.29;97548.13;4819686;29;20751;-69
2022/07/18 00:48:56;;;;;;;1.53;1.30;;;;;;;23.46;27.29;97542.84;4819844;29;20205;-69
2022/07/18 00:51:23;;;;;;;2.53;1.10;;;;;;;23.44;27.50;97544.78;4819552;29;20202;-70
2022/07/18 00:53:50;;;;;;;2.03;1.17;;;;;;;23.39;27.51;97541.69;4819511;29;20268;-69
2022/07/18 00:56:19;;;;;;;2.13;1.40;;;;;;;23.38;27.62;97548.81;4819261;29;20627;-69
2022/07/18 00:58:47;;;;;;;1.53;1.10;;;;;;;23.31;27.52;97552.94;4819550;29;20203;-69
2022/07/18 01:04:00;;;;;;;1.77;1.20;;;;;;;23.65;27.88;97540.22;4819363;29;20205;-70
2022/07/18 01:06:27;;;;;;;2.07;1.37;;;;;;;23.71;28.22;97541.47;4819164;29;20771;-70
2022/07/18 01:08:57;;;;;;;1.67;1.13;;;;;;;23.70;27.42;97543.25;4819379;29;20192;-70
2022/07/18 01:11:25;;;;;;;1.27;1.03;;;;;;;23.74;27.62;97555.22;4819241;29;20313;-70
2022/07/18 01:13:53;;;;;;;1.60;1.13;;;;;;;23.75;27.66;97548.13;4819583;29;20240;-70
2022/07/18 01:16:20;;;;;;;2.03;1.30;;;;;;;23.48;28.40;97553.25;4819385;29;20245;-70
2022/07/18 01:18:49;;;;;;;1.60;1.20;;;;;;;23.54;28.71;97550.06;4819429;29;20213;-70
2022/07/18 01:21:16;;;;;;;3.00;1.50;;;;;;;23.57;28.60;97553.28;4819126;29;20262;-70
2022/07/18 01:23:44;;;;;;;1.37;1.00;;;;;;;23.59;29.26;97554.00;4819385;29;20203;-70
2022/07/18 01:26:13;;;;;;;3.77;1.80;;;;;;;23.59;28.89;97554.00;4819038;29;20901;-70
2022/07/18 01:28:41;;;;;;;5.77;2.30;;;;;;;22.81;29.34;97561.00;4818992;29;20269;-70
2022/07/18 01:31:08;;;;;;;3.63;1.90;;;;;;;22.56;29.95;97568.34;4819202;29;20673;-70
2022/07/18 01:33:36;;;;;;;3.57;2.00;;;;;;;22.64;30.28;97560.66;4819159;29;20214;-70
2022/07/18 01:36:05;;;;;;;6.77;2.47;;;;;;;22.71;30.38;97555.66;4819214;29;20237;-70
2022/07/18 01:38:34;;;;;;;3.00;2.07;;;;;;;22.53;29.96;97551.91;4818986;29;20662;-70
2022/07/18 01:41:01;;;;;;;7.63;2.70;;;;;;;22.06;30.03;97541.91;4818939;29;20211;-70
2022/07/18 01:43:28;;;;;;;4.53;2.27;;;;;;;21.96;30.15;97562.94;4802516;29;20257;-69
2022/07/18 01:45:55;;;;;;;4.23;2.50;;;;;;;21.95;30.82;97566.53;4818699;29;20207;-70
2022/07/18 01:48:23;;;;;;;2.23;1.80;;;;;;;22.06;30.32;97553.31;4819104;29;20594;-70
2022/07/18 01:50:51;;;;;;;9.67;2.30;;;;;;;22.18;30.50;97569.91;4818145;29;20232;-69
2022/07/18 01:53:18;;;;;;;4.07;2.60;;;;;;;22.15;30.88;97570.16;4818888;29;20756;-70
2022/07/18 01:55:45;;;;;;;9.10;6.10;;;;;;;22.23;31.35;97571.22;4818447;29;20235;-69
2022/07/18 01:58:12;;;;;;;5.23;2.70;;;;;;;22.09;30.96;97574.13;4818926;29;20221;-69
2022/07/18 02:00:39;;;;;;;4.67;1.80;;;;;;;21.94;30.75;97567.53;4818543;29;20204;-69
2022/07/18 02:03:06;;;;;;;4.90;2.00;;;;;;;21.41;31.58;97571.03;4802360;29;20208;-69
2022/07/18 02:05:33;;;;;;;2.93;1.87;;;;;;;21.57;31.80;97574.09;4818705;29;20251;-69
2022/07/18 02:08:00;;;;;;;3.63;2.03;;;;;;;21.68;31.54;97574.88;4818526;29;20268;-70
2022/07/18 02:10:27;;;;;;;2.80;2.20;;;;;;;21.70;31.56;97583.50;4818743;29;20288;-70
2022/07/18 02:12:54;;;;;;;11.23;8.17;;;;;;;21.60;31.54;97574.69;4818420;29;20215;-69
2022/07/18 02:15:21;;;;;;;3.13;2.80;;;;;;;21.28;32.72;97581.72;4818499;29;20230;-69
2022/07/18 02:17:48;;;;;;;5.37;2.13;;;;;;;20.99;32.57;97596.31;4818118;29;20232;-70
2022/07/18 02:20:16;;;;;;;2.97;2.20;;;;;;;21.14;31.94;97589.06;4818529;29;20211;-69
2022/07/18 02:22:43;;;;;;;6.67;2.40;;;;;;;20.99;32.34;97597.19;4818665;29;20211;-69
2022/07/18 02:25:11;;;;;;;3.50;1.80;;;;;;;21.03;32.82;97597.78;4818393;29;20207;-69
2022/07/18 02:27:38;;;;;;;2.87;2.40;;;;;;;21.22;32.26;97605.94;4818397;29;20251;-71
2022/07/18 02:30:08;;;;;;;4.30;1.87;;;;;;;21.49;32.68;97597.63;4818443;29;20208;-71
2022/07/18 02:32:37;;;;;;;2.90;1.97;;;;;;;21.65;31.62;97611.22;4802112;29;20204;-69
2022/07/18 02:35:08;;;;;;;4.63;1.90;;;;;;;21.38;33.03;97597.63;4819107;29;20214;-69
2022/07/18 02:37:37;;;;;;;3.40;1.70;;;;;;;21.29;33.42;97609.72;4818965;29;20219;-69
2022/07/18 02:40:07;;;;;;;3.40;1.40;;;;;;;21.10;33.77;97600.78;4818318;29;20695;-69
2022/07/18 02:42:35;;;;;;;3.40;1.70;;;;;;;20.70;34.16;97613.56;4818522;29;20694;-69
2022/07/18 02:45:04;;;;;;;2.80;1.60;;;;;;;20.69;34.10;97604.00;4818671;29;20583;-69
2022/07/18 02:47:31;;;;;;;3.00;1.43;;;;;;;20.77;34.19;97615.59;4818529;29;20211;-69
2022/07/18 02:49:57;;;;;;;3.23;1.57;;;;;;;20.99;34.01;97620.88;4818335;29;20246;-69
2022/07/18 02:52:24;;;;;;;3.33;1.73;;;;;;;20.81;33.96;97611.75;4818011;29;20198;-68
2022/07/18 02:54:51;;;;;;;2.77;1.60;;;;;;;20.62;34.74;97622.06;4817782;29;20216;-68
2022/07/18 02:57:18;;;;;;;3.73;1.63;;;;;;;20.61;35.06;97624.81;4817950;29;20290;-69
2022/07/18 02:59:45;;;;;;;5.90;1.90;;;;;;;20.76;34.96;97626.25;4818148;29;20682;-68
2022/07/18 03:02:12;;;;;;;2.37;1.40;;;;;;;20.64;34.84;97620.13;4817933;29;20255;-69
2022/07/18 03:04:39;;;;;;;3.53;1.70;;;;;;;20.34;35.61;97637.41;4820590;29;20209;-69
2022/07/18 03:07:06;;;;;;;2.03;1.53;;;;;;;20.15;36.38;97630.03;4821162;29;20565;-69
2022/07/18 03:09:33;;;;;;;2.60;1.53;;;;;;;20.14;36.41;97633.59;4821570;29;20225;-69
2022/07/18 03:12:00;;;;;;;7.23;1.70;;;;;;;20.25;36.72;97637.16;4821377;29;20199;-69
2022/07/18 03:14:27;;;;;;;6.63;1.90;;;;;;;20.45;35.64;97637.44;4821535;29;20206;-69
2022/07/18 03:16:54;;;;;;;5.53;1.50;;;;;;;20.46;35.94;97639.97;4820900;29;20281;-69
2022/07/18 03:19:22;;;;;;;2.83;1.53;;;;;;;20.67;35.54;97643.56;4821104;29;20266;-69
2022/07/18 03:21:48;;;;;;;3.00;1.87;;;;;;;20.57;35.57;97645.22;4820736;29;20721;-68
2022/07/18 03:24:15;;;;;;;3.03;2.20;;;;;;;20.09;36.21;97641.81;4820838;29;20206;-69
2022/07/18 03:26:43;;;;;;;5.80;3.03;;;;;;;20.04;37.28;97651.88;4820692;29;20256;-68
2022/07/18 03:29:11;;;;;;;7.17;4.20;;;;;;;20.12;36.78;97662.66;4820874;29;20592;-68
2022/07/18 03:31:38;;;;;;;5.63;3.80;;;;;;;20.12;36.90;97653.91;4821241;29;20209;-69
2022/07/18 03:34:05;;;;;;;3.27;2.60;;;;;;;20.25;36.59;97667.88;4820784;29;20205;-70
2022/07/18 03:36:36;;;;;;;3.53;2.63;;;;;;;20.16;36.66;97650.94;4804183;29;20248;-68
2022/07/18 03:39:04;;;;;;;5.43;1.87;;;;;;;20.48;36.12;97659.09;4802733;29;20675;-68
2022/07/18 03:41:31;;;;;;;3.73;2.27;;;;;;;20.29;36.52;97664.06;4802765;29;20219;-69
2022/07/18 03:43:58;;;;;;;9.77;4.07;;;;;;;20.21;37.01;97675.16;4802696;29;20263;-68
2022/07/18 03:46:25;;;;;;;13.17;3.70;;;;;;;20.28;37.01;97680.78;4802409;29;20214;-69
2022/07/18 03:48:52;;;;;;;4.17;1.90;;;;;;;20.44;36.11;97675.25;4802589;29;20210;-70
2022/07/18 03:51:19;;;;;;;8.40;2.30;;;;;;;21.03;35.39;97679.44;4802717;29;20211;-68
2022/07/18 03:53:46;;;;;;;5.73;2.90;;;;;;;21.70;35.03;97691.63;4802373;29;20214;-68
2022/07/18 03:56:13;;;;;;;5.57;3.00;;;;;;;21.46;35.71;97696.22;4802285;29;20246;-67
2022/07/18 03:58:41;;;;;;;8.80;3.00;;;;;;;21.59;35.09;97689.00;4802663;29;20256;-68
2022/07/18 04:01:08;;;;;;;12.87;5.43;;;;;;;21.27;36.39;97690.69;4802285;29;20270;-69
2022/07/18 04:03:36;;;;;;;4.90;2.57;;;;;;;21.33;35.47;97692.03;4802305;29;20193;-68
2022/07/18 04:06:03;;;;;;;5.13;2.30;;;;;;;21.24;35.31;97688.31;4802179;29;20626;-68
2022/07/18 04:08:30;;;;;;;3.27;1.90;;;;;;;21.32;34.94;97690.34;4785744;29;20203;-68
2022/07/18 04:10:57;;;;;;;3.17;2.27;;;;;;;21.53;35.16;97701.84;4801972;29;20306;-68
2022/07/18 04:13:24;;;;;;;4.27;2.10;;;;;;;21.38;35.31;97697.78;4801861;29;20212;-68
2022/07/18 04:15:51;;;;;;;8.57;2.30;;;;;;;21.69;34.65;97711.03;4801337;29;20323;-69
2022/07/18 04:18:18;;;;;;;6.50;2.17;;;;;;;21.86;34.73;97715.81;4783162;29;20218;-68
2022/07/18 04:20:44;;;;;;;6.93;2.90;;;;;;;21.43;36.10;97711.44;4783733;29;20262;-68
2022/07/18 04:23:11;;;;;;;3.80;2.20;;;;;;;21.00;37.43;97714.72;4783832;29;20729;-68
2022/07/18 04:25:41;;;;;;;6.43;2.73;;;;;;;21.11;37.59;97715.72;4783757;29;20223;-68
2022/07/18 04:28:11;;;;;;;4.00;2.10;;;;;;;20.88;37.60;97704.28;4783856;29;20224;-68
2022/07/18 04:30:39;;;;;;;2.77;2.03;;;;;;;20.57;37.89;97703.13;4783538;29;20216;-69
2022/07/18 04:33:08;;;;;;;5.37;2.20;;;;;;;20.41;38.94;97705.25;4783475;29;20208;-68
2022/07/18 04:35:37;;;;;;;4.10;2.00;;;;;;;20.42;39.00;97708.72;4783608;29;20725;-69
2022/07/18 04:38:05;;;;;;;3.27;2.10;;;;;;;20.50;38.93;97704.56;4783915;29;20214;-68
2022/07/18 04:40:33;;;;;;;4.00;1.83;;;;;;;20.69;38.34;97710.09;4783777;30;20228;-71
2022/07/18 04:43:00;;;;;;;4.17;1.70;;;;;;;21.51;37.84;97714.31;4784165;29;20496;-70
2022/07/18 04:45:27;;;;;;;6.73;2.17;;;;;;;21.88;36.90;97711.25;4783340;29;20269;-69
2022/07/18 04:47:55;;;;;;;4.67;1.97;;;;;;;22.53;36.00;97715.59;4783197;29;20264;-70
2022/07/18 04:50:23;;;;;;;5.50;2.30;;;;;;;23.11;35.23;97716.84;4783548;29;20233;-69
2022/07/18 04:52:51;;;;;;;2.10;1.80;;;;;;;22.97;34.56;97714.56;4783270;29;20233;-69
2022/07/18 04:55:21;;;;;;;2.60;2.20;;;;;;;22.59;35.26;97712.47;4783221;29;20217;-68
2022/07/18 04:57:49;;;;;;;2.53;1.83;;;;;;;22.48;35.24;97705.41;4783140;30;20742;-70
2022/07/18 05:00:20;;;;;;;3.77;2.07;;;;;;;22.50;35.64;97711.41;4783192;29;20267;-70
2022/07/18 05:02:50;;;;;;;2.57;1.80;;;;;;;22.66;35.27;97711.03;4783039;29;20282;-71
2022/07/18 05:05:18;;;;;;;3.00;1.50;;;;;;;22.55;36.14;97709.25;4782894;29;20636;-69
2022/07/18 05:07:46;;;;;;;7.67;2.40;;;;;;;23.14;35.94;97716.63;4782964;29;20280;-70
2022/07/18 05:10:15;;;;;;;4.20;2.30;;;;;;;23.39;35.11;97716.19;4783283;29;20202;-69
2022/07/18 05:12:44;;;;;;;3.27;2.20;;;;;;;23.59;33.88;97717.97;4783084;29;20234;-69
2022/07/18 05:15:14;;;;;;;4.40;2.47;;;;;;;23.90;34.26;97710.81;4782753;29;20279;-70
2022/07/18 05:17:43;;;;;;;3.27;1.90;;;;;;;24.20;34.15;97716.03;4796096;29;20243;-70
2022/07/18 05:20:15;;;;;;;6.00;1.87;;;;;;;24.51;32.78;97703.50;4800769;29;20206;-69
2022/07/18 05:22:43;;;;;;;2.83;2.10;;;;;;;24.72;32.49;97701.53;4800562;29;20674;-69
2022/07/18 05:25:11;;;;;;;6.27;2.47;;;;;;;24.91;32.13;97717.44;4800276;29;20195;-71
2022/07/18 05:27:38;;;;;;;5.60;2.03;;;;;;;25.07;32.22;97720.34;4800002;29;20246;-70
2022/07/18 05:30:07;;;;;;;8.20;5.13;;;;;;;25.37;32.64;97721.94;4800518;29;20208;-69
2022/07/18 05:32:34;;;;;;;6.10;2.10;;;;;;;25.52;31.49;97725.81;4800810;29;20269;-69
2022/07/18 05:35:01;;;;;;;7.57;2.27;;;;;;;25.67;31.19;97727.84;4800776;29;20263;-69
2022/07/18 05:37:29;;;;;;;10.20;2.47;;;;;;;25.67;30.19;97727.00;4800072;29;20298;-70
2022/07/18 05:39:56;;;;;;;4.47;2.10;;;;;;;26.01;31.00;97728.06;4800294;29;20214;-70
2022/07/18 05:42:23;;;;;;;3.63;2.47;;;;;;;26.04;29.52;97722.47;4800243;29;20210;-69
2022/07/18 05:45:11;;;;;;;3.53;1.80;;;;;;;26.18;30.54;97723.81;4800152;29;20194;-70
2022/07/18 05:47:38;;;;;;;3.83;1.70;;;;;;;26.37;29.00;97721.00;4800711;29;20221;-70
2022/07/18 05:50:06;;;;;;;3.33;1.97;;;;;;;26.49;29.80;97722.44;4800211;29;20214;-70
2022/07/18 05:52:34;;;;;;;5.80;2.83;;;;;;;26.72;29.71;97717.53;4799907;29;20214;-69
2022/07/18 05:55:01;;;;;;;12.80;2.80;;;;;;;26.78;29.71;97712.44;4800209;29;20214;-70
2022/07/18 05:57:29;;;;;;;7.20;3.23;;;;;;;26.94;30.27;97715.22;4799905;29;20609;-70
2022/07/18 05:59:56;;;;;;;4.60;2.40;;;;;;;27.03;31.96;97718.78;4799991;29;20767;-71
2022/07/18 06:02:22;;;;;;;6.83;2.50;;;;;;;26.72;33.20;97698.94;4800289;29;20209;-70
2022/07/18 06:04:49;;;;;;;10.10;2.33;;;;;;;27.03;32.18;97716.97;4800247;29;20225;-70
2022/07/18 06:07:36;;;;;;;5.67;2.23;;;;;;;27.12;31.86;97718.66;4799929;29;20766;-71
2022/07/18 06:10:04;;;;;;;3.87;2.33;;;;;;;27.45;31.02;97722.38;4799552;29;20207;-72
2022/07/18 06:12:32;;;;;;;6.23;2.97;;;;;;;27.41;30.80;97720.22;4799754;29;20278;-70
2022/07/18 06:15:00;;;;;;;8.77;2.73;;;;;;;27.47;29.75;97715.06;4799423;29;20271;-69
2022/07/18 06:17:30;;;;;;;6.60;2.80;;;;;;;27.45;28.74;97717.06;4799577;29;20251;-70
2022/07/18 06:19:57;;;;;;;7.80;2.33;;;;;;;27.56;28.98;97711.47;4799538;29;20214;-70
2022/07/18 06:22:24;;;;;;;7.57;2.40;;;;;;;27.81;28.66;97723.06;4799507;29;20656;-70
2022/07/18 06:24:52;;;;;;;4.90;2.40;;;;;;;27.86;28.66;97710.91;4799692;29;20272;-70
2022/07/18 06:27:18;;;;;;;3.67;1.90;;;;;;;27.85;28.06;97713.75;4799501;29;20202;-70
2022/07/18 06:29:45;;;;;;;6.90;2.40;;;;;;;27.99;28.30;97711.34;4799266;29;20207;-70
2022/07/18 06:32:12;;;;;;;3.43;2.00;;;;;;;27.90;26.04;97716.78;4783230;29;20683;-69
2022/07/18 06:34:39;;;;;;;5.97;3.20;;;;;;;27.68;27.02;97709.34;4799662;29;20230;-70
2022/07/18 06:37:06;;;;;;;7.83;2.40;;;;;;;27.70;26.44;97710.06;4799320;29;20608;-70
2022/07/18 06:39:33;;;;;;;2.87;2.17;;;;;;;27.85;27.00;97716.41;4799196;29;20275;-70
2022/07/18 06:42:01;;;;;;;4.67;2.37;;;;;;;27.91;25.69;97713.09;4798824;29;20250;-70
2022/07/18 06:44:28;;;;;;;6.47;2.93;;;;;;;27.96;25.67;97710.84;4799415;29;20206;-70
2022/07/18 06:46:57;;;;;;;3.97;1.77;;;;;;;27.78;25.21;97713.56;4799262;29;20203;-70
2022/07/18 06:49:25;;;;;;;4.80;2.30;;;;;;;27.88;25.98;97706.25;4799506;29;20215;-70
2022/07/18 06:51:52;;;;;;;5.53;2.43;;;;;;;27.95;25.01;97703.81;4782948;29;20271;-70
2022/07/18 06:54:20;;;;;;;3.87;2.00;;;;;;;28.17;24.97;97713.91;4799404;29;20206;-70
2022/07/18 06:56:48;;;;;;;6.63;2.37;;;;;;;28.42;24.59;97712.91;4799095;29;20242;-71
2022/07/18 06:59:15;;;;;;;4.33;1.70;;;;;;;28.59;24.77;97709.31;4799213;29;20203;-70
2022/07/18 07:01:42;;;;;;;4.57;2.43;;;;;;;28.62;24.05;97679.69;4799127;29;20201;-71
2022/07/18 07:04:10;;;;;;;4.83;1.87;;;;;;;28.76;23.26;97713.66;4799169;29;20233;-71
2022/07/18 07:06:38;;;;;;;1.70;1.30;;;;;;;28.32;23.67;97696.25;4798957;29;20658;-71
2022/07/18 07:09:05;;;;;;;3.50;1.90;;;;;;;28.31;23.48;97707.94;4798844;29;20680;-71
2022/07/18 07:11:32;;;;;;;9.87;2.83;;;;;;;28.30;23.28;97702.75;4797950;29;20214;-71
2022/07/18 07:14:00;;;;;;;7.30;2.50;;;;;;;28.50;24.35;97696.13;4798752;29;20218;-71
2022/07/18 07:16:28;;;;;;;4.60;2.17;;;;;;;28.68;24.30;97697.66;4798639;29;20290;-70
2022/07/18 07:18:55;;;;;;;3.23;2.23;;;;;;;28.90;23.63;97702.31;4798794;29;20218;-70
2022/07/18 07:21:22;;;;;;;3.93;2.80;;;;;;;28.96;24.24;97701.66;4798668;29;20195;-71
2022/07/18 07:23:49;;;;;;;4.53;2.30;;;;;;;28.67;24.09;97698.66;4798702;29;20231;-70
2022/07/18 07:26:16;;;;;;;5.90;2.30;;;;;;;28.66;24.27;97709.50;4797685;29;20295;-70
2022/07/18 07:28:43;;;;;;;7.37;2.43;;;;;;;28.59;24.34;97703.97;4798986;29;20210;-70
2022/07/18 07:31:10;;;;;;;5.03;2.37;;;;;;;28.90;24.37;97707.66;4798361;29;20210;-71
2022/07/18 07:33:37;;;;;;;6.00;2.47;;;;;;;28.60;24.98;97711.00;4798814;29;20210;-70
2022/07/18 07:36:05;;;;;;;5.67;2.17;;;;;;;28.18;25.98;97708.41;4798452;29;20211;-71
2022/07/18 07:38:32;;;;;;;6.23;3.47;;;;;;;27.97;25.60;97701.84;4798298;29;20243;-70
2022/07/18 07:41:01;;;;;;;8.47;3.30;;;;;;;28.08;25.81;97705.06;4798568;29;20263;-70
2022/07/18 07:43:28;;;;;;;3.83;2.10;;;;;;;28.42;26.04;97702.25;4797419;29;20310;-70
2022/07/18 07:45:56;;;;;;;4.37;2.10;;;;;;;28.16;26.21;97682.91;4798081;29;20251;-71
2022/07/18 07:48:23;;;;;;;7.70;2.70;;;;;;;28.43;26.93;97705.78;4798288;29;20207;-69
2022/07/18 07:50:50;;;;;;;5.93;2.73;;;;;;;28.69;26.58;97703.81;4801049;29;20727;-71
2022/07/18 07:53:17;;;;;;;5.70;3.07;;;;;;;28.80;26.71;97700.81;4801776;29;20206;-71
2022/07/18 07:55:44;;;;;;;3.40;2.17;;;;;;;27.65;27.11;97712.34;4801557;29;20271;-70
2022/07/18 07:58:11;;;;;;;7.23;3.33;;;;;;;28.07;26.82;97700.72;4801627;29;20307;-71
2022/07/18 08:00:39;;;;;;;7.10;3.33;;;;;;;27.61;27.45;97711.00;4801760;29;20217;-71
2022/07/18 08:03:07;;;;;;;7.83;2.77;;;;;;;27.02;28.58;97715.28;4801820;29;20263;-70
2022/07/18 08:05:38;;;;;;;5.67;3.00;;;;;;;26.94;27.30;97711.72;4801341;29;20288;-71
2022/07/18 08:08:06;;;;;;;7.57;5.07;;;;;;;27.02;27.82;97709.97;4801602;29;20267;-72
2022/07/18 08:10:33;;;;;;;8.50;6.80;;;;;;;27.35;28.52;97697.72;4801192;29;20210;-70
2022/07/18 08:13:09;;;;;;;5.87;3.77;;;;;;;27.62;28.06;97707.31;4801925;29;20297;-71
2022/07/18 08:15:36;;;;;;;7.60;3.27;;;;;;;27.27;28.64;97698.47;4801535;29;20297;-70
2022/07/18 08:18:04;;;;;;;6.93;3.27;;;;;;;27.04;28.96;97700.00;4801162;29;20265;-70
2022/07/18 08:20:33;;;;;;;3.20;2.60;;;;;;;27.28;29.18;97691.34;4801685;29;20218;-71
2022/07/18 08:23:05;;;;;;;6.33;2.60;;;;;;;27.77;28.25;97695.09;4801167;29;20705;-70
2022/07/18 08:25:35;;;;;;;4.37;2.53;;;;;;;28.34;27.81;97707.59;4801331;29;20290;-71
2022/07/18 08:28:03;;;;;;;5.93;2.73;;;;;;;28.52;26.83;97716.25;4801159;29;20665;-70
2022/07/18 08:30:31;;;;;;;6.83;2.90;;;;;;;28.13;27.15;97705.38;4801360;29;20703;-70
2022/07/18 08:33:00;;;;;;;4.30;2.97;;;;;;;27.89;27.57;97710.63;4801250;29;20691;-70
2022/07/18 08:35:29;;;;;;;5.53;2.30;;;;;;;27.96;27.53;97694.88;4800914;29;20207;-69
2022/07/18 08:37:56;;;;;;;16.97;7.53;;;;;;;27.69;27.77;97703.03;4800931;29;20238;-71
2022/07/18 08:40:23;;;;;;;10.70;2.90;;;;;;;27.83;28.69;97697.09;4801164;29;20233;-71
2022/07/18 08:42:52;;;;;;;4.67;2.47;;;;;;;27.86;28.17;97707.44;4800839;29;20214;-69
2022/07/18 08:45:42;;;;;;;3.20;2.07;;;;;;;27.82;28.60;97708.75;4800964;29;20298;-71
2022/07/18 08:48:13;;;;;;;6.00;2.43;;;;;;;27.53;29.20;97705.63;4801246;29;20726;-70
2022/07/18 08:50:44;;;;;;;4.00;2.87;;;;;;;27.53;29.08;97697.66;4800965;29;20234;-71
2022/07/18 08:53:12;;;;;;;4.57;2.50;;;;;;;28.07;28.70;97708.69;4800716;29;20638;-70
2022/07/18 08:55:39;;;;;;;3.87;2.73;;;;;;;28.48;28.47;97714.13;4800514;29;20217;-70
2022/07/18 08:58:06;;;;;;;3.60;2.67;;;;;;;28.59;28.45;97709.31;4800603;29;20237;-70
2022/07/18 09:00:53;;;;;;;6.80;3.80;;;;;;;28.68;28.25;97703.00;4784169;29;20638;-69
2022/07/18 09:03:20;;;;;;;4.57;2.27;;;;;;;28.92;28.18;97700.31;4800451;29;20263;-69
2022/07/18 09:06:11;;;;;;;11.63;3.20;;;;;;;28.82;28.30;97705.00;4800260;29;20663;-70
2022/07/18 09:08:56;;;;;;;4.13;2.90;;;;;;;28.52;28.76;97699.47;4800315;29;20213;-70
2022/07/18 09:11:23;;;;;;;7.53;2.23;;;;;;;28.13;28.58;97702.72;4800324;29;20584;-71
2022/07/18 09:14:29;;;;;;;3.70;2.80;;;;;;;28.37;28.60;97699.28;4799943;29;20295;-71
2022/07/18 09:17:00;;;;;;;3.70;2.60;;;;;;;28.64;28.01;97701.66;4799983;29;20250;-70
2022/07/18 09:19:27;;;;;;;4.83;2.93;;;;;;;28.70;27.72;97698.34;4800457;29;20206;-70
2022/07/18 09:22:11;;;;;;;3.87;2.50;;;;;;;28.70;27.84;97695.66;4800228;29;20765;-70
2022/07/18 09:24:50;;;;;;;4.33;3.30;;;;;;;28.70;28.54;97695.66;4799930;29;20214;-70
2022/07/18 09:28:06;;;;;;;5.67;3.03;;;;;;;28.66;28.45;97697.00;4799857;29;20798;-71
2022/07/18 09:30:35;;;;;;;3.90;2.93;;;;;;;28.65;28.19;97695.31;4788806;29;20203;-70
2022/07/18 09:33:02;;;;;;;14.57;8.67;;;;;;;28.42;29.07;97693.47;4800072;29;20271;-70
2022/07/18 09:35:46;;;;;;;7.10;2.87;;;;;;;28.43;28.13;97690.63;4799986;29;20214;-71
2022/07/18 09:38:16;;;;;;;3.40;2.70;;;;;;;28.03;28.81;97698.53;4799772;29;20238;-71
2022/07/18 09:40:44;;;;;;;4.57;2.73;;;;;;;27.98;28.48;97690.19;4799607;29;20210;-70
2022/07/18 09:43:14;;;;;;;4.23;2.60;;;;;;;27.99;28.67;97695.38;4799989;29;20228;-70
2022/07/18 09:45:49;;;;;;;4.13;2.63;;;;;;;27.87;28.71;97687.78;4799593;29;20706;-69
2022/07/18 09:48:22;;;;;;;3.20;2.23;;;;;;;28.25;28.57;97692.59;4799731;29;20218;-71
2022/07/18 09:50:54;;;;;;;5.00;3.20;;;;;;;28.44;28.68;97689.59;4799806;29;20211;-71
2022/07/18 09:53:32;;;;;;;7.17;5.07;;;;;;;28.51;28.25;97679.13;4799416;29;20217;-70
2022/07/18 09:56:12;;;;;;;6.70;4.43;;;;;;;28.63;27.42;97672.47;4799396;29;20223;-70
2022/07/18 09:58:53;;;;;;;6.90;3.63;;;;;;;28.72;27.60;97677.66;4799312;29;20246;-71
2022/07/18 10:01:20;;;;;;;3.23;2.37;;;;;;;28.88;27.69;97676.81;4783698;29;20210;-71
2022/07/18 10:03:48;;;;;;;3.17;2.50;;;;;;;28.56;28.05;97674.16;4799480;29;20309;-70
2022/07/18 10:06:18;;;;;;;3.30;2.30;;;;;;;28.38;28.06;97676.94;4799506;29;20210;-70
2022/07/18 10:08:45;;;;;;;2.70;2.40;;;;;;;28.12;28.43;97670.91;4799731;29;20210;-70
2022/07/18 10:11:12;;;;;;;3.93;2.40;;;;;;;28.27;28.75;97676.44;4783637;29;20609;-70
2022/07/18 10:13:39;;;;;;;7.80;3.00;;;;;;;28.17;28.94;97657.97;4799274;29;20214;-70
2022/07/18 10:16:06;;;;;;;4.90;2.60;;;;;;;28.35;28.83;97671.13;4799524;29;20279;-70
2022/07/18 10:18:36;;;;;;;6.43;2.40;;;;;;;27.80;29.90;97660.97;4799725;29;20266;-70
2022/07/18 10:21:12;;;;;;;3.03;2.70;;;;;;;27.80;29.41;97668.16;4799352;29;20214;-72
2022/07/18 10:23:42;;;;;;;6.67;2.73;;;;;;;28.35;29.00;97653.31;4799588;29;20218;-70
2022/07/18 10:26:22;;;;;;;3.73;2.93;;;;;;;28.83;28.19;97669.31;4799290;29;20214;-70
2022/07/18 10:28:55;;;;;;;2.90;2.60;;;;;;;28.47;28.22;97667.13;4799281;29;20230;-71
2022/07/18 10:31:32;;;;;;;3.00;2.70;;;;;;;28.74;28.76;97659.66;4799361;29;20734;-69
2022/07/18 10:34:06;;;;;;;3.73;2.70;;;;;;;29.23;27.67;97656.94;4797737;29;20297;-70
2022/07/18 10:36:36;;;;;;;5.17;3.13;;;;;;;29.55;27.14;97651.50;4783071;29;20203;-71
2022/07/18 10:39:07;;;;;;;4.03;3.20;;;;;;;29.84;26.74;97645.53;4799009;29;20249;-71
2022/07/18 10:41:43;;;;;;;3.53;2.97;;;;;;;29.99;27.12;97647.28;4799331;29;20211;-71
2022/07/18 10:44:30;;;;;;;3.10;2.63;;;;;;;30.32;26.69;97651.44;4783204;29;20201;-70
2022/07/18 10:47:03;;;;;;;4.47;2.60;;;;;;;30.19;26.46;97651.16;4799249;29;20210;-70
2022/07/18 10:49:46;;;;;;;5.80;3.33;;;;;;;30.37;26.70;97643.72;4782854;29;20663;-70
2022/07/18 10:52:25;;;;;;;7.63;3.20;;;;;;;30.58;26.58;97647.56;4799008;29;20218;-70
2022/07/18 10:55:01;;;;;;;5.40;2.90;;;;;;;30.65;26.45;97635.94;4799264;29;20214;-71
2022/07/18 10:57:54;;;;;;;5.60;4.03;;;;;;;30.93;25.56;97633.56;4799124;29;20238;-71
2022/07/18 11:00:25;;;;;;;3.90;3.00;;;;;;;30.99;25.32;97630.16;4781481;29;20214;-71
2022/07/18 11:03:09;;;;;;;4.17;2.50;;;;;;;30.92;25.04;97624.69;4799082;29;20585;-69
2022/07/18 11:05:41;;;;;;;6.90;3.20;;;;;;;30.86;25.64;97625.44;4799398;29;20206;-70
2022/07/18 11:08:13;;;;;;;8.23;2.90;;;;;;;30.76;25.52;97640.03;4799453;29;20214;-70
2022/07/18 11:15:59;;;;;;;4.07;2.53;;;;;;;30.17;26.50;97626.44;4799059;29;20302;-70
2022/07/18 11:18:26;;;;;;;4.97;2.90;;;;;;;30.03;26.56;97613.84;4799124;29;20635;-70
2022/07/18 11:20:53;;;;;;;4.97;2.70;;;;;;;30.38;26.50;97602.59;4799033;29;20301;-70
2022/07/18 11:23:26;;;;;;;5.43;2.97;;;;;;;30.98;25.70;97620.44;4798876;29;20207;-70
2022/07/18 11:25:58;;;;;;;5.20;2.70;;;;;;;31.09;25.92;97614.66;4801539;29;20207;-69
2022/07/18 11:28:28;;;;;;;13.00;4.50;;;;;;;31.09;26.27;97612.81;4802366;29;20210;-70
2022/07/18 11:31:00;;;;;;;5.30;2.90;;;;;;;31.29;25.17;97611.22;4802374;29;20898;-71
2022/07/18 11:33:29;;;;;;;4.27;3.10;;;;;;;31.29;25.17;97611.22;4802389;29;20680;-71
2022/07/18 11:36:11;;;;;;;3.97;3.03;;;;;;;30.24;25.84;97614.03;4802431;29;20198;-71
2022/07/18 11:38:56;;;;;;;4.60;2.90;;;;;;;30.04;26.43;97612.84;4802011;29;20268;-69
2022/07/18 11:41:24;;;;;;;3.03;2.73;;;;;;;29.56;26.67;97594.41;4801980;29;20199;-70
2022/07/18 11:43:53;;;;;;;4.43;2.83;;;;;;;29.55;27.16;97596.22;4801885;29;20237;-71
2022/07/18 11:46:22;;;;;;;3.43;2.70;;;;;;;29.95;26.77;97595.22;4801094;29;20214;-70
2022/07/18 11:49:05;;;;;;;4.37;2.70;;;;;;;29.55;26.84;97604.25;4800628;29;20213;-70
2022/07/18 11:51:42;;;;;;;4.93;2.70;;;;;;;29.63;26.49;97588.22;4802131;29;20263;-70
2022/07/18 11:54:11;;;;;;;3.00;2.70;;;;;;;30.14;26.76;97584.06;4801950;29;20210;-70